Time;durP1;ratioP1;P1;durP2;ratioP2;P2;SDS_P1;SDS_P2;PMS_P1;PMS_P2;Temp;Humidity;BMP_temperature;BMP_pressure;BME280_temperature;BME280_humidity;BME280_pressure;Samples;Min_cycle;Max_cycle;Signal;HPM_P1;HPM_P2
2021/03/29 00:00:26;;;;;;;;;;;;;;;;;;5051360;28;19913;-81
2021/03/29 00:02:51;;;;;;;;;;;;;;;;;;5031150;28;19912;-81
2021/03/29 00:05:17;;;;;;;;;;;;;;;;;;5014995;28;19935;-80
2021/03/29 00:07:43;;;;;;;;;;;;;;;;;;5031054;28;19916;-80
2021/03/29 00:10:09;;;;;;;;;;;;;;;;;;5042996;28;20057;-80
2021/03/29 00:12:35;;;;;;;;;;;;;;;;;;5051534;28;20378;-81
2021/03/29 00:15:00;;;;;;;;;;;;;;;;;;5050984;28;19909;-81
2021/03/29 00:17:26;;;;;;;;;;;;;;;;;;5033938;28;19974;-81
2021/03/29 00:19:51;;;;;;;;;;;;;;;;;;5034011;28;20299;-80
2021/03/29 00:22:16;;;;;;;;;;;;;;;;;;5034168;28;19927;-81
2021/03/29 00:24:42;;;;;;;;;;;;;;;;;;5018051;28;19958;-80
2021/03/29 00:27:07;;;;;;;;;;;;;;;;;;5034526;28;19919;-80
2021/03/29 00:29:32;;;;;;;;;;;;;;;;;;5034197;28;19908;-80
2021/03/29 00:31:58;;;;;;;;;;;;;;;;;;5033823;28;19955;-80
2021/03/29 00:34:23;;;;;;;;;;;;;;;;;;5017693;28;19918;-80
2021/03/29 00:36:48;;;;;;;;;;;;;;;;;;5033871;28;19916;-80
2021/03/29 00:39:14;;;;;;;;;;;;;;;;;;5034211;28;19985;-80
2021/03/29 00:41:39;;;;;;;;;;;;;;;;;;5034542;28;19931;-80
2021/03/29 00:44:05;;;;;;;;;;;;;;;;;;5033993;28;19958;-80
2021/03/29 00:46:30;;;;;;;;;;;;;;;;;;5033923;28;19913;-80
2021/03/29 00:48:56;;;;;;;;;;;;;;;;;;5017583;28;19940;-81
2021/03/29 00:51:22;;;;;;;;;;;;;;;;;;5034040;28;20393;-80
2021/03/29 00:53:48;;;;;;;;;;;;;;;;;;5034160;28;20284;-81
2021/03/29 00:56:14;;;;;;;;;;;;;;;;;;5034002;28;19909;-81
2021/03/29 00:58:39;;;;;;;;;;;;;;;;;;5033895;28;20282;-81
2021/03/29 01:01:25;;;;;;;;;;;;;;;;;;5033553;28;19916;-81
2021/03/29 01:03:51;;;;;;;;;;;;;;;;;;5033048;28;19909;-81
2021/03/29 01:06:17;;;;;;;;;;;;;;;;;;5034184;28;20318;-81
2021/03/29 01:08:46;;;;;;;;;;;;;;;;;;5034132;28;19912;-81
2021/03/29 01:11:12;;;;;;;;;;;;;;;;;;5050579;28;19912;-81
2021/03/29 01:13:47;;;;;;;;;;;;;;;;;;5033875;28;20385;-80
2021/03/29 01:16:14;;;;;;;;;;;;;;;;;;5033525;28;19915;-81
2021/03/29 01:18:40;;;;;;;;;;;;;;;;;;5050409;28;20031;-81
2021/03/29 01:21:08;;;;;;;;;;;;;;;;;;5017074;28;19964;-81
2021/03/29 01:23:33;;;;;;;;;;;;;;;;;;5050432;28;19998;-80
2021/03/29 01:26:01;;;;;;;;;;;;;;;;;;5033677;28;19952;-81
2021/03/29 01:28:27;;;;;;;;;;;;;;;;;;5033532;28;19952;-81
2021/03/29 01:30:52;;;;;;;;;;;;;;;;;;5052043;28;19955;-80
2021/03/29 01:33:18;;;;;;;;;;;;;;;;;;5037385;28;19952;-81
2021/03/29 01:35:44;;;;;;;;;;;;;;;;;;5020725;28;19995;-81
2021/03/29 01:38:09;;;;;;;;;;;;;;;;;;5037406;28;19916;-80
2021/03/29 01:40:35;;;;;;;;;;;;;;;;;;5037130;28;19909;-80
2021/03/29 01:43:01;;;;;;;;;;;;;;;;;;5036119;28;19920;-80
2021/03/29 01:45:26;;;;;;;;;;;;;;;;;;5036135;28;19913;-80
2021/03/29 01:47:52;;;;;;;;;;;;;;;;;;5070402;28;19925;-80
2021/03/29 01:50:18;;;;;;;;;;;;;;;;;;5053506;28;19913;-80
2021/03/29 01:52:43;;;;;;;;;;;;;;;;;;5036840;28;19917;-81
2021/03/29 01:55:09;;;;;;;;;;;;;;;;;;5070049;28;19963;-80
2021/03/29 01:57:34;;;;;;;;;;;;;;;;;;5036360;28;20378;-80
2021/03/29 02:00:00;;;;;;;;;;;;;;;;;;5053156;28;19909;-81
2021/03/29 02:02:25;;;;;;;;;;;;;;;;;;5033168;28;19924;-81
2021/03/29 02:04:51;;;;;;;;;;;;;;;;;;5033434;28;20347;-81
2021/03/29 02:07:16;;;;;;;;;;;;;;;;;;5017134;28;19913;-81
2021/03/29 02:09:41;;;;;;;;;;;;;;;;;;5024972;28;19909;-81
2021/03/29 02:12:07;;;;;;;;;;;;;;;;;;5053167;28;19912;-81
2021/03/29 02:14:33;;;;;;;;;;;;;;;;;;5036591;28;20368;-81
2021/03/29 02:16:58;;;;;;;;;;;;;;;;;;5019485;28;19951;-80
2021/03/29 02:19:24;;;;;;;;;;;;;;;;;;5019988;28;19909;-80
2021/03/29 02:21:49;;;;;;;;;;;;;;;;;;5052603;28;19917;-80
2021/03/29 02:24:14;;;;;;;;;;;;;;;;;;5036337;28;20303;-80
2021/03/29 02:26:40;;;;;;;;;;;;;;;;;;5019826;28;19908;-81
2021/03/29 02:29:05;;;;;;;;;;;;;;;;;;5036028;28;19908;-80
2021/03/29 02:31:30;;;;;;;;;;;;;;;;;;5036139;28;19913;-80
2021/03/29 02:33:56;;;;;;;;;;;;;;;;;;5036493;28;19913;-80
2021/03/29 02:36:21;;;;;;;;;;;;;;;;;;5019632;28;19913;-80
2021/03/29 02:38:48;;;;;;;;;;;;;;;;;;5019509;28;19912;-81
2021/03/29 02:41:13;;;;;;;;;;;;;;;;;;5034761;28;19909;-80
2021/03/29 02:43:38;;;;;;;;;;;;;;;;;;5035909;28;20317;-81
2021/03/29 02:46:07;;;;;;;;;;;;;;;;;;5052401;28;19916;-80
2021/03/29 02:48:33;;;;;;;;;;;;;;;;;;5052861;28;19962;-80
2021/03/29 02:50:59;;;;;;;;;;;;;;;;;;5035705;28;20003;-80
2021/03/29 02:53:29;;;;;;;;;;;;;;;;;;5019102;28;20343;-80
2021/03/29 02:55:54;;;;;;;;;;;;;;;;;;5035205;28;20370;-80
2021/03/29 02:58:21;;;;;;;;;;;;;;;;;;5035859;28;19915;-80
2021/03/29 03:00:46;;;;;;;;;;;;;;;;;;5052370;28;20321;-80
2021/03/29 03:03:11;;;;;;;;;;;;;;;;;;5048639;28;19909;-80
2021/03/29 03:05:37;;;;;;;;;;;;;;;;;;5032734;28;19912;-80
2021/03/29 03:08:03;;;;;;;;;;;;;;;;;;5048967;28;20036;-80
2021/03/29 03:10:29;;;;;;;;;;;;;;;;;;5051727;28;19931;-80
2021/03/29 03:12:55;;;;;;;;;;;;;;;;;;5035478;28;20358;-80
2021/03/29 03:15:21;;;;;;;;;;;;;;;;;;5052183;28;19948;-80
2021/03/29 03:17:46;;;;;;;;;;;;;;;;;;5035148;28;19919;-80
2021/03/29 03:20:12;;;;;;;;;;;;;;;;;;5051552;28;20321;-81
2021/03/29 03:22:47;;;;;;;;;;;;;;;;;;5051910;28;20302;-80
2021/03/29 03:25:16;;;;;;;;;;;;;;;;;;5018234;28;19944;-81
2021/03/29 03:27:43;;;;;;;;;;;;;;;;;;5034798;28;19917;-80
2021/03/29 03:30:09;;;;;;;;;;;;;;;;;;5018620;28;20358;-80
2021/03/29 03:32:34;;;;;;;;;;;;;;;;;;5018457;28;19958;-81
2021/03/29 03:34:59;;;;;;;;;;;;;;;;;;5035215;28;19908;-81
2021/03/29 03:37:25;;;;;;;;;;;;;;;;;;5035049;28;19952;-80
2021/03/29 03:39:50;;;;;;;;;;;;;;;;;;5034757;28;19933;-80
2021/03/29 03:42:15;;;;;;;;;;;;;;;;;;5034649;28;19978;-80
2021/03/29 03:44:41;;;;;;;;;;;;;;;;;;5034797;28;19917;-80
2021/03/29 03:47:06;;;;;;;;;;;;;;;;;;5034855;28;19909;-80
2021/03/29 03:49:31;;;;;;;;;;;;;;;;;;5034801;28;19958;-80
2021/03/29 03:51:57;;;;;;;;;;;;;;;;;;5018215;28;19920;-82
2021/03/29 03:54:22;;;;;;;;;;;;;;;;;;5034351;28;19947;-81
2021/03/29 03:56:47;;;;;;;;;;;;;;;;;;5051045;28;19923;-81
2021/03/29 03:59:14;;;;;;;;;;;;;;;;;;5034616;28;19908;-81
2021/03/29 04:01:48;;;;;;;;;;;;;;;;;;5017746;28;19909;-81
2021/03/29 04:04:13;;;;;;;;;;;;;;;;;;4998193;28;19909;-81
2021/03/29 04:06:39;;;;;;;;;;;;;;;;;;5031328;28;20379;-81
2021/03/29 04:09:04;;;;;;;;;;;;;;;;;;5033777;28;19908;-80
2021/03/29 04:11:30;;;;;;;;;;;;;;;;;;5051240;28;19909;-80
2021/03/29 04:13:55;;;;;;;;;;;;;;;;;;5031173;28;19948;-81
2021/03/29 04:16:20;;;;;;;;;;;;;;;;;;5047682;28;19912;-81
2021/03/29 04:18:46;;;;;;;;;;;;;;;;;;5031097;28;19917;-81
2021/03/29 04:21:11;;;;;;;;;;;;;;;;;;5034382;28;19931;-80
2021/03/29 04:23:36;;;;;;;;;;;;;;;;;;5051065;28;20157;-81
2021/03/29 04:26:01;;;;;;;;;;;;;;;;;;5033917;28;19915;-81
2021/03/29 04:28:27;;;;;;;;;;;;;;;;;;5017857;28;20317;-81
2021/03/29 04:30:52;;;;;;;;;;;;;;;;;;5017649;28;19959;-80
2021/03/29 04:33:19;;;;;;;;;;;;;;;;;;5017787;28;19908;-81
2021/03/29 04:35:45;;;;;;;;;;;;;;;;;;5034227;28;19924;-80
2021/03/29 04:38:10;;;;;;;;;;;;;;;;;;5033177;28;19954;-82
2021/03/29 04:40:35;;;;;;;;;;;;;;;;;;5016191;28;20321;-81
2021/03/29 04:43:01;;;;;;;;;;;;;;;;;;5033538;28;19913;-81
2021/03/29 04:45:26;;;;;;;;;;;;;;;;;;5051153;28;19916;-80
2021/03/29 04:47:52;;;;;;;;;;;;;;;;;;5017385;28;19908;-80
2021/03/29 04:50:17;;;;;;;;;;;;;;;;;;5034201;28;19913;-81
2021/03/29 04:52:42;;;;;;;;;;;;;;;;;;5034006;28;19919;-81
2021/03/29 04:55:08;;;;;;;;;;;;;;;;;;5034015;28;19994;-81
2021/03/29 04:57:33;;;;;;;;;;;;;;;;;;5033948;28;19915;-81
2021/03/29 04:59:58;;;;;;;;;;;;;;;;;;5050566;28;19956;-81
2021/03/29 05:02:24;;;;;;;;;;;;;;;;;;5013954;28;20047;-81
2021/03/29 05:04:49;;;;;;;;;;;;;;;;;;5014698;28;19908;-81
2021/03/29 05:07:14;;;;;;;;;;;;;;;;;;5018249;28;19924;-80
2021/03/29 05:09:40;;;;;;;;;;;;;;;;;;5042244;28;19959;-80
2021/03/29 05:12:10;;;;;;;;;;;;;;;;;;5054445;28;20359;-81
2021/03/29 05:14:36;;;;;;;;;;;;;;;;;;5070779;28;19915;-80
2021/03/29 05:17:01;;;;;;;;;;;;;;;;;;5053859;28;20007;-81
2021/03/29 05:19:26;;;;;;;;;;;;;;;;;;5037413;28;20397;-81
2021/03/29 05:21:51;;;;;;;;;;;;;;;;;;5053858;28;19923;-81
2021/03/29 05:24:17;;;;;;;;;;;;;;;;;;5020760;28;20314;-80
2021/03/29 05:26:43;;;;;;;;;;;;;;;;;;5037836;28;19909;-80
2021/03/29 05:29:08;;;;;;;;;;;;;;;;;;5037597;28;19938;-80
2021/03/29 05:31:39;;;;;;;;;;;;;;;;;;5037403;28;19916;-82
2021/03/29 05:34:05;;;;;;;;;;;;;;;;;;5022083;28;19916;-82
2021/03/29 05:36:30;;;;;;;;;;;;;;;;;;5037237;28;19908;-82
2021/03/29 05:38:55;;;;;;;;;;;;;;;;;;5036872;28;20051;-82
2021/03/29 05:41:21;;;;;;;;;;;;;;;;;;5020789;28;20011;-81
2021/03/29 05:43:47;;;;;;;;;;;;;;;;;;5037470;28;19958;-85
2021/03/29 05:46:12;;;;;;;;;;;;;;;;;;5020437;28;19909;-80
2021/03/29 05:48:38;;;;;;;;;;;;;;;;;;5034775;28;19920;-81
2021/03/29 05:51:04;;;;;;;;;;;;;;;;;;5018139;28;19912;-82
2021/03/29 05:53:29;;;;;;;;;;;;;;;;;;5036005;28;20366;-83
2021/03/29 05:55:55;;;;;;;;;;;;;;;;;;5020225;28;20274;-83
2021/03/29 06:00:48;;;;;;;;;;;;;;;;;;5054100;28;19915;-83
2021/03/29 06:03:27;;;;;;;;;;;;;;;;;;5033311;28;19995;-85
2021/03/29 06:05:57;;;;;;;;;;;;;;;;;;5016728;28;19931;-83
2021/03/29 06:08:23;;;;;;;;;;;;;;;;;;5016698;28;20428;-82
2021/03/29 06:10:53;;;;;;;;;;;;;;;;;;5034228;28;19951;-83
2021/03/29 06:13:31;;;;;;;;;;;;;;;;;;5037936;28;19908;-82
2021/03/29 06:16:04;;;;;;;;;;;;;;;;;;5016889;28;19916;-83
2021/03/29 06:18:29;;;;;;;;;;;;;;;;;;5000000;28;19948;-84
2021/03/29 06:20:58;;;;;;;;;;;;;;;;;;5043640;28;19951;-82
2021/03/29 06:23:24;;;;;;;;;;;;;;;;;;5019896;28;19913;-83
2021/03/29 06:25:49;;;;;;;;;;;;;;;;;;5019472;28;19935;-82
2021/03/29 06:28:25;;;;;;;;;;;;;;;;;;5019686;28;19909;-82
2021/03/29 06:30:50;;;;;;;;;;;;;;;;;;5019693;28;19913;-81
2021/03/29 06:33:16;;;;;;;;;;;;;;;;;;5019050;28;19912;-81
2021/03/29 06:35:41;;;;;;;;;;;;;;;;;;5019525;28;19947;-82
2021/03/29 06:38:13;;;;;;;;;;;;;;;;;;5052727;28;19978;-83
2021/03/29 06:40:40;;;;;;;;;;;;;;;;;;5035694;28;19908;-82
2021/03/29 06:43:16;;;;;;;;;;;;;;;;;;5036580;28;19915;-82
2021/03/29 06:45:41;;;;;;;;;;;;;;;;;;5020322;28;19970;-81
2021/03/29 06:48:15;;;;;;;;;;;;;;;;;;5019087;28;19909;-82
2021/03/29 06:50:41;;;;;;;;;;;;;;;;;;5036362;28;20714;-81
2021/03/29 06:53:06;;;;;;;;;;;;;;;;;;5036461;28;19927;-81
2021/03/29 06:55:31;;;;;;;;;;;;;;;;;;5019465;28;19940;-81
2021/03/29 06:57:57;;;;;;;;;;;;;;;;;;5018770;28;19912;-81
2021/03/29 07:00:29;;;;;;;;;;;;;;;;;;5019675;28;20694;-81
2021/03/29 07:02:57;;;;;;;;;;;;;;;;;;5068338;28;19915;-81
2021/03/29 07:05:22;;;;;;;;;;;;;;;;;;5019293;28;19987;-81
2021/03/29 07:07:47;;;;;;;;;;;;;;;;;;5018936;28;20011;-81
2021/03/29 07:10:13;;;;;;;;;;;;;;;;;;5032061;28;19913;-81
2021/03/29 07:12:39;;;;;;;;;;;;;;;;;;5032367;28;19908;-81
2021/03/29 07:15:08;;;;;;;;;;;;;;;;;;5029614;28;19916;-81
2021/03/29 07:17:37;;;;;;;;;;;;;;;;;;5018802;28;19916;-81
2021/03/29 07:20:03;;;;;;;;;;;;;;;;;;5018613;28;19966;-81
2021/03/29 07:22:28;;;;;;;;;;;;;;;;;;5051803;28;19920;-81
2021/03/29 07:24:54;;;;;;;;;;;;;;;;;;5018351;28;20367;-81
2021/03/29 07:27:19;;;;;;;;;;;;;;;;;;5017802;28;19909;-81
2021/03/29 07:29:45;;;;;;;;;;;;;;;;;;5035282;28;20004;-80
2021/03/29 07:32:30;;;;;;;;;;;;;;;;;;5032194;28;20737;-79
2021/03/29 07:34:55;;;;;;;;;;;;;;;;;;5031801;28;19913;-80
2021/03/29 07:37:24;;;;;;;;;;;;;;;;;;5015002;28;20085;-80
2021/03/29 07:39:49;;;;;;;;;;;;;;;;;;5014836;28;20287;-80
2021/03/29 07:42:24;;;;;;;;;;;;;;;;;;5032270;28;19909;-81
2021/03/29 07:44:50;;;;;;;;;;;;;;;;;;5048322;28;19953;-79
2021/03/29 07:47:26;;;;;;;;;;;;;;;;;;5029861;28;19916;-80
2021/03/29 07:49:52;;;;;;;;;;;;;;;;;;5030950;28;19927;-80
2021/03/29 07:52:24;;;;;;;;;;;;;;;;;;5026861;28;19939;-82
2021/03/29 07:54:50;;;;;;;;;;;;;;;;;;5034872;28;19908;-81
2021/03/29 07:57:36;;;;;;;;;;;;;;;;;;5034522;28;19919;-85
2021/03/29 08:00:02;;;;;;;;;;;;;;;;;;5013350;28;19952;-81
2021/03/29 08:02:31;;;;;;;;;;;;;;;;;;5050161;28;19951;-82
2021/03/29 08:05:00;;;;;;;;;;;;;;;;;;5033462;28;20385;-82
2021/03/29 08:07:38;;;;;;;;;;;;;;;;;;5016988;28;19908;-85
2021/03/29 08:10:05;;;;;;;;;;;;;;;;;;5016798;28;19921;-87
2021/03/29 08:12:31;;;;;;;;;;;;;;;;;;5017768;28;19909;-86
2021/03/29 08:15:01;;;;;;;;;;;;;;;;;;5035557;28;20003;-87
2021/03/29 08:17:50;;;;;;;;;;;;;;;;;;5016272;28;20301;-86
2021/03/29 08:20:24;;;;;;;;;;;;;;;;;;5047045;28;19935;-82
2021/03/29 08:23:08;;;;;;;;;;;;;;;;;;5032717;28;20000;-85
2021/03/29 08:25:34;;;;;;;;;;;;;;;;;;5046144;28;19986;-86
2021/03/29 08:27:59;;;;;;;;;;;;;;;;;;5012542;28;19963;-85
2021/03/29 08:30:25;;;;;;;;;;;;;;;;;;5039545;28;19913;-89
2021/03/29 08:33:07;;;;;;;;;;;;;;;;;;5018342;28;20438;-88
2021/03/29 08:35:37;;;;;;;;;;;;;;;;;;5041734;28;19920;-85
2021/03/29 08:38:06;;;;;;;;;;;;;;;;;;5036892;28;20351;-83
2021/03/29 08:40:33;;;;;;;;;;;;;;;;;;5040004;28;19917;-83
2021/03/29 08:43:05;;;;;;;;;;;;;;;;;;5044048;28;19967;-86
2021/03/29 08:45:30;;;;;;;;;;;;;;;;;;5045751;28;20018;-84
2021/03/29 08:47:57;;;;;;;;;;;;;;;;;;5026264;28;20394;-83
2021/03/29 08:50:24;;;;;;;;;;;;;;;;;;5020027;28;20003;-80
2021/03/29 08:53:01;;;;;;;;;;;;;;;;;;5044636;28;19916;-80
2021/03/29 08:55:27;;;;;;;;;;;;;;;;;;5053172;28;19989;-88
2021/03/29 08:57:56;;;;;;;;;;;;;;;;;;5050720;28;19912;-86
2021/03/29 09:00:26;;;;;;;;;;;;;;;;;;5025257;28;19975;-86
2021/03/29 09:02:52;;;;;;;;;;;;;;;;;;5030023;28;19920;-87
2021/03/29 09:05:17;;;;;;;;;;;;;;;;;;5048943;28;19913;-87
2021/03/29 09:07:45;;;;;;;;;;;;;;;;;;5021056;28;19908;-85
2021/03/29 09:10:16;;;;;;;;;;;;;;;;;;5045677;28;19982;-82
2021/03/29 09:12:42;;;;;;;;;;;;;;;;;;5053383;28;20007;-81
2021/03/29 09:15:11;;;;;;;;;;;;;;;;;;5036432;28;20019;-81
2021/03/29 09:17:37;;;;;;;;;;;;;;;;;;5033507;28;19978;-80
2021/03/29 09:20:15;;;;;;;;;;;;;;;;;;5044268;28;19913;-80
2021/03/29 09:22:42;;;;;;;;;;;;;;;;;;5034565;28;19916;-79
2021/03/29 09:25:08;;;;;;;;;;;;;;;;;;5053085;28;19912;-76
2021/03/29 09:27:37;;;;;;;;;;;;;;;;;;5044156;28;20400;-77
2021/03/29 09:30:08;;;;;;;;;;;;;;;;;;5053926;28;19912;-77
2021/03/29 09:32:33;;;;;;;;;;;;;;;;;;5052724;28;20421;-79
2021/03/29 09:34:59;;;;;;;;;;;;;;;;;;5036090;28;20004;-78
2021/03/29 09:37:28;;;;;;;;;;;;;;;;;;5036301;28;19908;-78
2021/03/29 09:40:00;;;;;;;;;;;;;;;;;;5042977;28;19912;-79
2021/03/29 09:42:42;;;;;;;;;;;;;;;;;;5043867;28;19959;-80
2021/03/29 09:45:08;;;;;;;;;;;;;;;;;;5030259;28;20363;-79
2021/03/29 09:47:34;;;;;;;;;;;;;;;;;;5044933;28;19913;-79
2021/03/29 09:49:59;;;;;;;;;;;;;;;;;;5040614;28;20340;-79
2021/03/29 09:52:34;;;;;;;;;;;;;;;;;;5051904;28;20012;-78
2021/03/29 09:55:00;;;;;;;;;;;;;;;;;;5029357;28;19923;-79
2021/03/29 09:57:26;;;;;;;;;;;;;;;;;;5031967;28;20297;-79
2021/03/29 09:59:52;;;;;;;;;;;;;;;;;;5031502;28;19955;-78
2021/03/29 10:02:27;;;;;;;;;;;;;;;;;;5047995;28;19948;-78
2021/03/29 10:05:05;;;;;;;;;;;;;;;;;;5033322;28;19956;-77
2021/03/29 10:07:31;;;;;;;;;;;;;;;;;;5033152;28;20007;-78
2021/03/29 10:09:59;;;;;;;;;;;;;;;;;;5051782;28;20362;-78
2021/03/29 10:12:28;;;;;;;;;;;;;;;;;;5043379;28;19940;-79
2021/03/29 10:15:07;;;;;;;;;;;;;;;;;;5043472;28;19952;-78
2021/03/29 10:17:32;;;;;;;;;;;;;;;;;;5066631;28;19916;-79
2021/03/29 10:20:11;;;;;;;;;;;;;;;;;;5043276;28;19924;-78
2021/03/29 10:22:36;;;;;;;;;;;;;;;;;;5050512;28;20035;-78
2021/03/29 10:25:17;;;;;;;;;;;;;;;;;;5035161;28;20003;-78
2021/03/29 10:27:47;;;;;;;;;;;;;;;;;;5067162;28;20274;-79
2021/03/29 10:30:20;;;;;;;;;;;;;;;;;;5034598;28;19959;-78
2021/03/29 10:32:46;;;;;;;;;;;;;;;;;;5057427;28;19913;-79
2021/03/29 10:35:11;;;;;;;;;;;;;;;;;;5042790;28;19966;-79
2021/03/29 10:37:37;;;;;;;;;;;;;;;;;;5034439;28;19917;-79
2021/03/29 10:40:03;;;;;;;;;;;;;;;;;;5040520;28;19919;-78
2021/03/29 10:42:31;;;;;;;;;;;;;;;;;;5018247;28;20015;-78
2021/03/29 10:44:56;;;;;;;;;;;;;;;;;;5060198;28;20015;-79
2021/03/29 10:47:22;;;;;;;;;;;;;;;;;;5051793;28;19999;-79
2021/03/29 10:49:48;;;;;;;;;;;;;;;;;;5012153;28;19913;-80
2021/03/29 10:52:13;;;;;;;;;;;;;;;;;;5042526;28;19917;-80
2021/03/29 10:54:38;;;;;;;;;;;;;;;;;;5033500;28;20386;-81
2021/03/29 10:57:04;;;;;;;;;;;;;;;;;;5046919;28;19913;-79
2021/03/29 10:59:29;;;;;;;;;;;;;;;;;;5043035;28;20012;-79
2021/03/29 11:01:55;;;;;;;;;;;;;;;;;;5033564;28;19916;-79
2021/03/29 11:04:20;;;;;;;;;;;;;;;;;;5023019;28;20268;-78
2021/03/29 11:06:45;;;;;;;;;;;;;;;;;;5026348;28;19912;-78
2021/03/29 11:09:11;;;;;;;;;;;;;;;;;;5017498;28;19995;-77
2021/03/29 11:11:36;;;;;;;;;;;;;;;;;;5031746;28;20018;-76
2021/03/29 11:14:02;;;;;;;;;;;;;;;;;;5035128;28;19912;-76
2021/03/29 11:16:27;;;;;;;;;;;;;;;;;;5034981;28;19915;-76
2021/03/29 11:18:53;;;;;;;;;;;;;;;;;;5033973;28;19908;-76
2021/03/29 11:21:18;;;;;;;;;;;;;;;;;;5050901;28;19920;-76
2021/03/29 11:23:44;;;;;;;;;;;;;;;;;;5050201;28;19923;-76
2021/03/29 11:26:09;;;;;;;;;;;;;;;;;;5034405;28;19912;-77
2021/03/29 11:28:34;;;;;;;;;;;;;;;;;;5034922;28;19956;-76
2021/03/29 11:31:00;;;;;;;;;;;;;;;;;;5049368;28;19963;-77
2021/03/29 11:33:25;;;;;;;;;;;;;;;;;;5033829;28;19912;-76
2021/03/29 11:35:50;;;;;;;;;;;;;;;;;;5051228;28;19928;-76
2021/03/29 11:38:16;;;;;;;;;;;;;;;;;;5067920;28;19920;-77
2021/03/29 11:40:41;;;;;;;;;;;;;;;;;;5030327;28;19913;-76
2021/03/29 11:43:07;;;;;;;;;;;;;;;;;;5029544;28;20007;-76
2021/03/29 11:45:32;;;;;;;;;;;;;;;;;;5051304;28;19912;-76
2021/03/29 11:47:58;;;;;;;;;;;;;;;;;;5051141;28;19912;-76
2021/03/29 11:50:23;;;;;;;;;;;;;;;;;;5050736;28;19917;-76
2021/03/29 11:52:48;;;;;;;;;;;;;;;;;;5050146;28;19916;-76
2021/03/29 11:55:14;;;;;;;;;;;;;;;;;;5051122;28;19908;-77
2021/03/29 11:57:40;;;;;;;;;;;;;;;;;;5034133;28;19908;-76
2021/03/29 12:00:07;;;;;;;;;;;;;;;;;;5051044;28;19908;-76
2021/03/29 12:02:41;;;;;;;;;;;;;;;;;;5050354;28;19909;-76
2021/03/29 12:12:35;;;;;;;;;;;;;;;;;;5051104;28;19908;-77
2021/03/29 12:15:00;;;;;;;;;;;;;;;;;;5050704;28;20350;-77
2021/03/29 12:17:26;;;;;;;;;;;;;;;;;;5051006;28;19923;-77
2021/03/29 12:19:51;;;;;;;;;;;;;;;;;;5033846;28;19916;-77
2021/03/29 12:22:18;;;;;;;;;;;;;;;;;;5033805;28;19948;-78
2021/03/29 12:24:45;;;;;;;;;;;;;;;;;;5034689;28;19967;-78
2021/03/29 12:27:10;;;;;;;;;;;;;;;;;;5029655;28;20051;-78
2021/03/29 12:29:39;;;;;;;;;;;;;;;;;;5034517;28;19982;-79
2021/03/29 12:32:05;;;;;;;;;;;;;;;;;;5033676;28;19916;-77
2021/03/29 12:34:30;;;;;;;;;;;;;;;;;;5031799;28;19909;-78
2021/03/29 12:36:56;;;;;;;;;;;;;;;;;;5025048;28;19919;-78
2021/03/29 12:39:28;;;;;;;;;;;;;;;;;;5044438;28;20337;-78
2021/03/29 12:41:57;;;;;;;;;;;;;;;;;;5050544;28;19913;-77
2021/03/29 12:44:22;;;;;;;;;;;;;;;;;;5019025;28;19916;-77
2021/03/29 12:46:51;;;;;;;;;;;;;;;;;;5034758;28;19921;-78
2021/03/29 12:49:16;;;;;;;;;;;;;;;;;;5051459;28;19909;-78
2021/03/29 12:51:42;;;;;;;;;;;;;;;;;;5053611;28;19923;-78
2021/03/29 12:54:11;;;;;;;;;;;;;;;;;;5034614;28;20075;-78
2021/03/29 12:56:37;;;;;;;;;;;;;;;;;;5034208;28;19975;-78
2021/03/29 12:59:06;;;;;;;;;;;;;;;;;;5041348;28;20371;-79
2021/03/29 13:01:32;;;;;;;;;;;;;;;;;;5036788;28;19909;-78
2021/03/29 13:03:59;;;;;;;;;;;;;;;;;;5032054;28;19913;-78
2021/03/29 13:06:38;;;;;;;;;;;;;;;;;;5051024;28;19916;-77
2021/03/29 13:09:09;;;;;;;;;;;;;;;;;;5050917;28;19925;-77
2021/03/29 13:11:34;;;;;;;;;;;;;;;;;;5048025;28;19908;-76
2021/03/29 13:14:00;;;;;;;;;;;;;;;;;;5049250;28;20007;-77
2021/03/29 13:16:25;;;;;;;;;;;;;;;;;;5051294;28;19908;-77
2021/03/29 13:18:51;;;;;;;;;;;;;;;;;;5020826;28;19912;-78
2021/03/29 13:21:16;;;;;;;;;;;;;;;;;;5014187;28;20338;-77
2021/03/29 13:23:41;;;;;;;;;;;;;;;;;;5016982;28;20413;-76
2021/03/29 13:26:07;;;;;;;;;;;;;;;;;;5052390;28;19915;-77
2021/03/29 13:28:32;;;;;;;;;;;;;;;;;;5055036;28;19908;-78
2021/03/29 13:30:57;;;;;;;;;;;;;;;;;;5024552;28;19920;-78
2021/03/29 13:33:23;;;;;;;;;;;;;;;;;;5060781;28;19951;-79
2021/03/29 13:35:48;;;;;;;;;;;;;;;;;;5032373;28;20382;-80
2021/03/29 13:38:13;;;;;;;;;;;;;;;;;;5038155;28;19908;-79
2021/03/29 13:40:39;;;;;;;;;;;;;;;;;;5021355;28;19908;-80
2021/03/29 13:43:04;;;;;;;;;;;;;;;;;;5054572;28;19955;-79
2021/03/29 13:45:30;;;;;;;;;;;;;;;;;;5071591;28;19954;-80
2021/03/29 13:47:55;;;;;;;;;;;;;;;;;;5055632;28;20011;-80
2021/03/29 13:50:21;;;;;;;;;;;;;;;;;;5036240;28;19912;-80
2021/03/29 13:52:48;;;;;;;;;;;;;;;;;;5053538;28;19920;-79
2021/03/29 13:55:13;;;;;;;;;;;;;;;;;;5053348;28;20337;-79
2021/03/29 13:57:39;;;;;;;;;;;;;;;;;;5051880;28;19963;-80
2021/03/29 14:00:05;;;;;;;;;;;;;;;;;;5016083;28;19913;-82
2021/03/29 14:02:30;;;;;;;;;;;;;;;;;;5028441;28;19909;-81
2021/03/29 14:04:56;;;;;;;;;;;;;;;;;;5035863;28;20452;-83
2021/03/29 14:07:21;;;;;;;;;;;;;;;;;;5036460;28;19913;-82
2021/03/29 14:09:46;;;;;;;;;;;;;;;;;;5036615;28;20251;-82
2021/03/29 14:12:12;;;;;;;;;;;;;;;;;;5053042;28;19920;-80
2021/03/29 14:14:38;;;;;;;;;;;;;;;;;;5062886;28;20003;-78
2021/03/29 14:17:03;;;;;;;;;;;;;;;;;;5036449;28;19915;-77
2021/03/29 14:19:28;;;;;;;;;;;;;;;;;;5069098;28;20367;-78
2021/03/29 14:21:54;;;;;;;;;;;;;;;;;;5033052;28;19917;-79
2021/03/29 14:24:19;;;;;;;;;;;;;;;;;;5016148;28;20354;-81
2021/03/29 14:26:45;;;;;;;;;;;;;;;;;;5035928;28;19909;-80
2021/03/29 14:29:10;;;;;;;;;;;;;;;;;;5053050;28;19932;-81
2021/03/29 14:31:36;;;;;;;;;;;;;;;;;;5036543;28;20350;-80
2021/03/29 14:34:04;;;;;;;;;;;;;;;;;;5052091;28;19935;-81
2021/03/29 14:46:57;;;;;;;;;;;;;;;;;;5064236;28;19913;-84
2021/03/29 14:49:24;;;;;;;;;;;;;;;;;;5029514;28;19912;-80
2021/03/29 14:51:50;;;;;;;;;;;;;;;;;;5048759;28;19917;-80
2021/03/29 14:54:15;;;;;;;;;;;;;;;;;;5035817;28;20274;-83
2021/03/29 14:56:40;;;;;;;;;;;;;;;;;;5035089;28;19978;-82
2021/03/29 14:59:07;;;;;;;;;;;;;;;;;;5051953;28;19925;-83
2021/03/29 15:01:34;;;;;;;;;;;;;;;;;;5018757;28;19925;-85
2021/03/29 15:03:59;;;;;;;;;;;;;;;;;;5035162;28;19973;-83
2021/03/29 15:06:44;;;;;;;;;;;;;;;;;;5052059;28;19909;-84
2021/03/29 15:09:11;;;;;;;;;;;;;;;;;;5035610;28;20017;-85
2021/03/29 15:11:36;;;;;;;;;;;;;;;;;;5019122;28;19908;-85
2021/03/29 15:14:01;;;;;;;;;;;;;;;;;;5019002;28;19923;-80
2021/03/29 15:16:27;;;;;;;;;;;;;;;;;;5018837;28;19913;-82
2021/03/29 15:18:53;;;;;;;;;;;;;;;;;;5035608;28;19908;-83
2021/03/29 15:21:19;;;;;;;;;;;;;;;;;;5035377;28;19923;-86
2021/03/29 15:23:44;;;;;;;;;;;;;;;;;;5026776;28;19917;-83
2021/03/29 15:26:09;;;;;;;;;;;;;;;;;;5014720;28;19962;-82
2021/03/29 15:28:35;;;;;;;;;;;;;;;;;;5048166;28;20363;-82
2021/03/29 15:31:00;;;;;;;;;;;;;;;;;;5014380;28;19912;-83
2021/03/29 15:33:25;;;;;;;;;;;;;;;;;;5015280;28;19908;-83
2021/03/29 15:35:51;;;;;;;;;;;;;;;;;;5029591;28;20464;-83
2021/03/29 15:38:18;;;;;;;;;;;;;;;;;;5034683;28;20025;-84
2021/03/29 15:40:43;;;;;;;;;;;;;;;;;;5035028;28;19944;-82
2021/03/29 15:43:09;;;;;;;;;;;;;;;;;;5031108;28;19967;-83
2021/03/29 15:45:34;;;;;;;;;;;;;;;;;;5012576;28;19919;-82
2021/03/29 15:47:59;;;;;;;;;;;;;;;;;;4998796;28;19909;-82
2021/03/29 15:50:25;;;;;;;;;;;;;;;;;;5002405;28;19913;-82
2021/03/29 15:52:51;;;;;;;;;;;;;;;;;;5014087;28;20395;-82
2021/03/29 15:55:16;;;;;;;;;;;;;;;;;;5017973;28;19920;-82
2021/03/29 15:57:45;;;;;;;;;;;;;;;;;;5033954;28;19916;-80
2021/03/29 16:00:14;;;;;;;;;;;;;;;;;;5049702;28;19912;-82
2021/03/29 16:02:45;;;;;;;;;;;;;;;;;;5027820;28;19909;-82
2021/03/29 16:05:11;;;;;;;;;;;;;;;;;;5015360;28;20367;-81
2021/03/29 16:07:36;;;;;;;;;;;;;;;;;;5025308;28;19944;-81
2021/03/29 16:10:03;;;;;;;;;;;;;;;;;;5034759;28;20385;-82
2021/03/29 16:12:29;;;;;;;;;;;;;;;;;;5016585;28;19920;-81
2021/03/29 16:14:55;;;;;;;;;;;;;;;;;;5030915;28;19909;-81
2021/03/29 16:17:21;;;;;;;;;;;;;;;;;;5015236;28;19916;-81
2021/03/29 16:19:46;;;;;;;;;;;;;;;;;;5014084;28;19917;-82
2021/03/29 16:22:11;;;;;;;;;;;;;;;;;;5033605;28;20294;-82
2021/03/29 16:24:39;;;;;;;;;;;;;;;;;;5034148;28;20000;-83
2021/03/29 16:27:07;;;;;;;;;;;;;;;;;;5033655;28;19999;-80
2021/03/29 16:29:36;;;;;;;;;;;;;;;;;;5034446;28;20363;-81
2021/03/29 16:32:12;;;;;;;;;;;;;;;;;;5047270;28;19932;-81
2021/03/29 16:34:38;;;;;;;;;;;;;;;;;;5049528;28;19948;-81
2021/03/29 16:37:04;;;;;;;;;;;;;;;;;;5031619;28;19916;-81
2021/03/29 16:39:29;;;;;;;;;;;;;;;;;;5053212;28;19913;-81
2021/03/29 16:41:54;;;;;;;;;;;;;;;;;;5033074;28;19939;-81
2021/03/29 16:44:24;;;;;;;;;;;;;;;;;;5017114;28;19920;-81
2021/03/29 16:46:53;;;;;;;;;;;;;;;;;;5017617;28;19908;-81
2021/03/29 16:49:18;;;;;;;;;;;;;;;;;;5017623;28;19913;-80
2021/03/29 16:51:44;;;;;;;;;;;;;;;;;;5033656;28;20386;-80
2021/03/29 16:54:09;;;;;;;;;;;;;;;;;;5033457;28;19971;-80
2021/03/29 16:56:35;;;;;;;;;;;;;;;;;;5066122;28;20393;-79
2021/03/29 16:59:00;;;;;;;;;;;;;;;;;;5048872;28;20003;-80
2021/03/29 17:01:25;;;;;;;;;;;;;;;;;;5034654;28;19948;-80
2021/03/29 17:03:50;;;;;;;;;;;;;;;;;;5052100;28;19912;-79